Date,TemperatureHighF,TemperatureAvgF,TemperatureLowF,DewpointHighF,DewpointAvgF,DewpointLowF,HumidityHigh,HumidityAvg,HumidityLow,PressureMaxIn,PressureMinIn,WindSpeedMaxMPH,WindSpeedAvgMPH,GustSpeedMaxMPH,PrecipitationSumIn
2013-1-1,30,23,9,24,11,-1,90,61,40,29.85,29.59,18,4,21,0.00
2013-1-2,20,9,-2,5,-2,-9,86,61,43,30.03,29.83,12,3,29,0.00
2013-1-3,22,9,-1,3,-3,-9,83,59,41,30.08,29.93,7,2,12,0.00
2013-1-4,31,18,-1,23,12,-5,89,78,70,29.91,29.70,7,1,14,0.00
2013-1-5,34,27,12,24,15,7,83,64,44,30.24,29.71,15,4,24,0.00
2013-1-6,32,22,10,22,17,6,87,80,67,30.21,29.89,5,1,7,0.00
2013-1-7,26,20,10,22,14,7,91,78,61,30.39,29.92,11,2,15,0.00
2013-1-8,41,26,9,25,20,6,94,78,51,30.34,30.16,11,2,15,0.09
2013-1-9,35,27,13,32,23,11,92,86,69,30.39,29.86,5,1,9,0.03
2013-1-10,43,37,26,31,25,20,86,63,48,30.50,29.88,16,6,35,0.10
2013-1-11,35,29,20,30,22,16,92,76,53,30.51,30.23,4,1,8,0.00
2013-1-12,40,36,32,39,35,30,97,96,93,30.23,30.09,2,0,4,0.04
2013-1-13,44,39,36,44,39,36,99,98,97,30.13,29.93,4,1,13,0.01
2013-1-14,56,44,35,51,38,23,99,82,42,30.18,29.82,8,2,16,0.02
2013-1-15,37,33,27,26,23,20,84,67,56,30.29,30.18,7,1,11,0.00
2013-1-16,31,29,28,29,26,20,95,87,69,30.25,29.75,4,1,7,0.00
2013-1-17,38,25,15,34,17,-1,96,75,38,30.11,29.74,9,2,15,0.24
2013-1-18,16,11,5,1,-4,-11,74,52,33,30.39,30.08,11,2,17,0.00
2013-1-19,37,28,11,28,17,1,83,66,56,30.34,29.84,11,2,19,0.05
2013-1-20,46,38,26,35,26,11,89,65,39,29.83,29.42,17,4,26,0.16
2013-1-21,26,20,12,15,4,-3,75,51,31,30.02,29.82,9,2,15,0.00
2013-1-22,18,13,6,11,2,-13,82,63,40,30.01,29.75,10,3,15,0.00
2013-1-23,6,2,-2,-12,-16,-19,53,43,35,30.08,30.00,14,4,20,0.00
2013-1-24,11,4,-3,-9,-14,-18,54,44,30,30.11,29.93,16,5,23,0.00
2013-1-25,18,10,2,2,-4,-10,69,54,34,30.19,30.05,8,2,18,0.00
2013-1-26,20,13,5,0,-3,-8,70,49,33,30.11,29.96,13,4,18,0.00
2013-1-27,24,14,6,2,-2,-6,67,48,33,30.40,30.11,12,4,19,0.00
2013-1-28,25,17,4,19,6,-6,91,66,30,30.41,30.06,6,1,7,0.00
2013-1-29,32,25,15,28,22,13,92,87,77,30.20,30.06,4,1,6,0.09
2013-1-30,49,41,30,48,40,28,99,97,92,30.12,29.42,8,2,19,0.36
2013-1-31,54,44,30,53,36,13,99,75,44,29.42,28.82,23,7,35,0.12
2013-2-1,29,24,16,16,6,0,60,47,35,30.01,29.43,15,5,26,0.00
2013-2-2,24,19,11,13,5,-2,71,54,44,30.18,30.01,7,2,12,0.00
2013-2-3,28,24,20,17,15,12,85,68,55,30.03,29.67,8,3,13,0.00
2013-2-4,27,22,14,13,6,-3,72,52,33,29.84,29.63,12,4,20,0.00
2013-2-5,24,15,3,7,0,-5,79,54,29,30.01,29.85,5,1,10,0.00
2013-2-6,35,23,12,23,10,-7,75,59,30,30.27,29.90,14,3,20,0.00
2013-2-7,20,13,7,-5,-8,-12,57,38,24,30.57,30.27,10,3,14,0.00
2013-2-8,15,12,9,12,4,-10,89,75,38,30.55,29.86,14,5,26,0.00
2013-2-9,17,13,10,14,11,7,92,90,89,30.08,29.66,29,12,36,0.00
2013-2-10,31,19,8,25,15,5,90,84,75,30.33,30.08,9,2,14,0.00
2013-2-11,36,21,4,36,18,1,98,91,86,30.33,29.55,3,1,6,0.29
2013-2-12,44,35,29,35,31,27,98,85,68,29.75,29.50,8,2,15,0.10
2013-2-13,42,34,25,28,25,21,91,71,46,29.79,29.72,6,1,11,0.00
2013-2-14,40,32,24,25,21,18,85,65,42,29.98,29.69,9,2,15,0.00
2013-2-15,43,31,20,36,27,18,96,85,70,29.98,29.88,9,1,21,0.00
2013-2-16,36,32,27,33,29,14,96,90,57,29.92,29.74,11,3,16,0.03
2013-2-17,27,21,17,19,11,3,91,67,50,29.74,29.16,21,10,30,0.00
2013-2-18,30,21,13,8,2,-3,55,45,35,30.02,29.45,18,7,35,0.00
2013-2-19,42,30,14,41,17,-2,97,61,29,30.08,29.55,4,1,11,0.70
2013-2-20,43,34,27,42,27,15,98,77,55,29.61,29.39,10,3,15,0.08
2013-2-21,30,25,20,23,15,8,78,65,50,30.11,29.62,10,4,18,0.00
2013-2-22,40,31,25,23,21,19,85,66,46,30.36,30.13,10,4,17,0.00
2013-2-23,37,31,25,33,27,20,95,85,74,30.33,30.00,7,1,9,0.00
2013-2-24,31,30,28,30,29,26,96,95,94,30.00,29.76,6,1,9,0.00
2013-2-25,38,31,24,30,27,22,96,87,65,30.22,29.89,7,1,10,0.58
2013-2-26,42,34,28,31,28,26,96,83,57,30.34,30.23,4,1,7,0.40
2013-2-27,37,32,27,33,30,25,96,92,81,30.23,29.66,7,2,17,0.05
2013-2-28,40,36,32,40,35,30,98,96,91,29.64,29.52,11,3,13,0.93
2013-3-1,34,32,31,32,30,29,94,90,82,29.64,29.51,11,5,16,0.02
2013-3-2,41,34,30,32,31,29,96,89,63,29.63,29.57,10,3,15,0.11
2013-3-3,41,36,31,35,30,26,96,82,66,29.59,29.49,8,2,15,0.14
2013-3-4,34,32,29,29,26,23,89,79,69,29.66,29.48,12,5,18,0.02
2013-3-5,44,38,31,34,32,27,92,80,64,30.10,29.67,10,4,17,0.01
2013-3-6,38,34,32,33,29,26,94,81,69,30.24,30.10,13,4,17,0.01
2013-3-7,36,34,31,26,25,24,79,71,62,30.19,30.07,12,6,22,0.00
2013-3-8,45,36,29,27,23,20,91,62,39,30.18,30.02,13,7,27,0.03
2013-3-9,48,36,26,28,23,21,89,62,36,30.36,30.17,16,4,22,0.00
2013-3-10,40,31,21,31,26,19,93,81,65,30.41,30.29,5,1,12,0.00
2013-3-11,41,38,35,39,35,31,94,87,77,30.29,30.13,7,2,16,0.00
2013-3-12,49,44,40,48,43,38,97,94,89,30.14,29.71,9,3,24,0.73
2013-3-13,49,43,34,47,37,27,98,82,59,29.71,29.64,7,2,19,0.02
2013-3-14,40,31,21,28,22,7,94,71,43,29.73,29.59,19,3,20,0.00
2013-3-15,36,25,16,19,10,3,84,54,33,29.78,29.58,15,4,23,0.00
2013-3-16,36,29,23,22,13,9,86,54,33,29.88,29.60,9,3,15,0.00
2013-3-17,32,24,15,13,6,-1,84,48,29,30.30,29.88,16,4,23,0.00
2013-3-18,36,24,10,21,8,0,76,54,23,30.42,30.27,6,2,12,0.00
2013-3-19,31,28,23,29,25,20,94,87,68,30.26,29.65,9,3,16,0.05
2013-3-20,35,28,20,26,21,18,92,77,55,29.70,29.59,12,4,19,0.27
2013-3-21,37,29,22,22,18,14,90,65,40,29.74,29.59,5,2,10,0.32
2013-3-22,38,30,18,19,17,14,92,62,40,29.63,29.56,8,2,15,0.01
2013-3-23,41,32,21,23,20,15,82,63,44,29.63,29.48,14,4,26,0.00
2013-3-24,47,37,28,26,24,22,79,61,41,29.76,29.63,14,4,22,0.00
2013-3-25,44,35,25,32,27,22,89,73,54,29.75,29.57,7,2,14,0.00
2013-3-26,50,40,31,27,24,21,74,54,36,29.71,29.54,14,5,21,0.00
2013-3-27,47,39,32,37,29,23,95,71,48,29.84,29.69,11,4,20,0.12
2013-3-28,50,41,33,36,32,29,95,74,45,29.95,29.84,7,2,15,0.00
2013-3-29,56,44,35,36,31,27,86,62,39,29.99,29.92,10,3,16,0.00
2013-3-30,56,42,29,32,26,16,91,59,23,30.07,29.95,13,2,17,0.00
2013-3-31,50,38,22,37,24,17,88,62,27,30.10,29.83,7,2,13,0.00
2013-4-1,51,42,33,43,38,24,96,86,69,29.82,29.47,9,3,20,0.66
2013-4-2,39,31,25,23,15,8,77,52,32,29.80,29.67,11,3,21,0.00
2013-4-3,43,35,28,19,13,9,67,43,25,30.02,29.78,16,5,20,0.00
2013-4-4,50,39,28,34,19,6,80,48,18,30.19,29.95,11,3,18,0.00
2013-4-5,53,43,37,34,29,21,81,59,32,29.95,29.62,13,3,20,0.00
2013-4-6,40,32,25,23,8,1,61,38,20,30.33,29.80,21,6,29,0.00
2013-4-7,45,38,23,38,28,11,84,69,44,30.33,29.94,9,3,21,0.00
2013-4-8,59,47,34,39,34,31,95,65,36,30.11,29.87,19,3,20,0.00
2013-4-9,47,41,35,44,39,32,96,91,82,30.10,29.87,8,2,11,0.42
2013-4-10,56,44,38,47,42,37,98,93,70,29.98,29.87,6,1,8,0.28
2013-4-11,53,45,38,42,29,15,98,60,26,30.17,29.84,12,3,15,0.05
2013-4-12,38,34,32,32,24,15,96,68,40,30.25,29.87,7,2,13,0.24
2013-4-13,47,38,32,38,35,31,97,88,67,29.90,29.77,7,2,10,0.24
2013-4-14,51,43,38,41,37,31,97,83,51,30.16,29.88,13,2,20,0.03
2013-4-15,53,42,30,39,35,28,93,77,46,30.40,30.16,8,2,12,0.00
2013-4-16,52,45,38,46,40,37,96,83,64,30.40,29.94,11,3,19,0.01
2013-4-17,62,52,39,48,32,23,95,50,28,30.32,29.93,16,5,24,0.00
2013-4-18,49,41,28,39,29,22,87,65,37,30.46,30.15,8,2,11,0.00
2013-4-19,62,53,46,56,50,40,97,89,75,30.14,29.61,9,3,18,0.00
2013-4-20,57,52,42,56,41,24,98,71,38,30.12,29.55,15,4,21,0.24
2013-4-21,51,41,30,25,20,14,70,46,24,30.69,30.13,15,4,21,0.00
2013-4-22,50,38,26,34,23,16,93,60,27,30.79,30.64,8,2,14,0.00
2013-4-23,44,37,28,40,34,26,95,89,74,30.64,30.18,9,2,13,0.02
2013-4-24,63,48,41,51,45,40,96,88,64,30.18,29.75,12,4,17,0.06
2013-4-25,63,53,40,49,36,25,96,59,25,30.27,29.76,16,4,19,0.03
2013-4-26,58,45,31,36,30,26,89,60,34,30.42,30.27,6,2,12,0.00
2013-4-27,61,45,31,41,36,29,95,73,40,30.41,30.30,8,2,11,0.00
2013-4-28,65,48,30,44,35,29,96,66,32,30.32,30.24,9,2,14,0.00
2013-4-29,60,47,33,45,38,31,96,74,43,30.26,30.20,6,1,15,0.00
2013-4-30,66,49,33,45,35,26,96,65,27,30.37,30.23,9,2,11,0.00
2013-5-1,64,49,31,41,34,29,95,62,30,30.45,30.36,8,2,13,0.00
2013-5-2,64,48,35,48,38,32,95,70,39,30.51,30.39,10,2,14,0.00
2013-5-3,61,48,34,46,39,31,93,74,53,30.54,30.38,8,2,11,0.00
2013-5-4,62,46,35,44,38,33,96,75,41,30.39,30.31,8,2,13,0.00
2013-5-5,61,46,30,44,36,28,97,73,43,30.34,30.24,7,2,14,0.00
2013-5-6,61,46,31,47,40,29,97,83,58,30.27,30.16,7,2,12,0.00
2013-5-7,68,54,45,54,48,43,97,84,54,30.17,30.09,8,2,13,0.00
2013-5-8,71,58,44,61,54,43,98,85,67,30.22,30.11,7,2,13,0.04
2013-5-9,60,55,52,58,54,51,97,95,90,30.10,29.89,3,1,7,0.73
2013-5-10,69,56,50,61,54,50,98,91,72,29.95,29.87,6,1,10,0.02
2013-5-11,60,55,51,57,54,50,98,96,90,29.91,29.67,4,2,13,0.21
2013-5-12,65,57,49,61,54,41,99,90,65,29.70,29.51,9,1,13,0.08
2013-5-13,58,50,41,40,32,28,77,53,34,29.98,29.71,10,3,21,0.00
2013-5-14,59,49,38,41,32,27,84,55,32,30.00,29.93,12,3,18,0.00
2013-5-15,63,49,34,48,36,27,95,65,26,30.00,29.65,12,2,14,0.18
2013-5-16,80,61,48,56,46,37,97,65,22,29.77,29.54,11,3,18,0.00
2013-5-17,66,56,45,45,40,35,83,56,35,30.18,29.77,9,3,17,0.00
2013-5-18,65,50,37,44,41,35,95,73,45,30.33,30.18,5,1,10,0.00
2013-5-19,67,53,44,50,47,41,94,81,54,30.35,30.22,7,1,9,0.08
2013-5-20,72,58,50,63,55,49,98,90,70,30.21,29.90,5,1,10,0.49
2013-5-21,56,51,48,55,50,47,96,94,91,30.09,29.95,4,1,9,0.49
2013-5-22,57,52,48,54,50,47,98,94,87,29.99,29.90,4,1,6,0.38
2013-5-23,60,55,48,59,54,47,98,94,87,29.93,29.80,4,1,13,0.06
2013-5-24,61,58,49,60,57,48,99,97,95,29.82,29.63,9,3,20,1.46
2013-5-25,51,48,46,50,47,45,98,96,91,29.81,29.63,15,6,24,0.61
2013-5-26,56,49,44,46,44,38,98,84,60,29.96,29.58,11,5,20,0.33
2013-5-27,70,55,40,41,37,31,87,57,26,30.14,29.96,14,3,23,0.00
2013-5-28,73,55,37,46,40,35,96,62,27,30.22,30.15,8,1,15,0.00
2013-5-29,55,52,45,55,51,42,97,95,84,30.19,29.98,3,0,8,0.15
2013-5-30,86,69,54,70,60,53,99,78,44,30.00,29.94,7,1,15,0.00
2013-5-31,92,74,57,71,63,55,98,72,42,30.02,29.86,8,1,11,0.00
2013-6-1,90,73,60,71,63,58,96,74,49,29.89,29.78,7,1,16,0.00
2013-6-2,80,70,62,68,64,60,95,81,62,29.80,29.66,6,1,21,0.14
2013-6-3,74,65,58,68,62,56,98,90,74,29.80,29.68,4,1,12,0.03
2013-6-4,68,59,48,56,45,41,94,63,39,30.03,29.75,12,3,22,0.00
2013-6-5,74,60,49,50,44,39,82,60,30,30.14,30.04,7,2,13,0.00
2013-6-6,72,58,47,53,48,43,92,72,35,30.20,30.13,4,1,7,0.00
2013-6-7,61,56,52,53,50,45,96,82,58,30.14,29.92,4,1,8,0.58
2013-6-8,70,60,53,61,56,52,97,87,68,29.95,29.62,11,3,18,0.88
2013-6-9,72,64,57,62,58,55,95,82,66,30.12,29.95,6,1,8,0.00
2013-6-10,70,60,51,58,54,49,96,82,60,30.20,30.04,7,1,12,0.00
2013-6-11,57,55,54,55,54,53,97,95,91,30.04,29.52,6,2,16,0.68
2013-6-12,61,58,54,58,55,53,98,92,85,29.74,29.49,10,3,17,0.08
2013-6-13,73,59,50,57,52,48,96,81,45,29.77,29.71,8,1,10,0.00
2013-6-14,78,62,54,58,54,51,95,77,41,29.73,29.63,6,1,10,0.00
2013-6-15,80,65,50,51,46,41,92,55,25,29.87,29.71,9,2,14,0.00
2013-6-16,76,61,48,57,52,45,94,74,45,29.88,29.68,10,1,10,0.00
2013-6-17,84,66,55,65,59,53,96,80,41,29.84,29.70,8,1,16,0.22
2013-6-18,67,61,56,59,55,51,96,83,57,29.96,29.82,5,1,8,0.01
2013-6-19,78,64,50,55,50,44,95,66,33,30.11,29.90,7,2,10,0.00
2013-6-20,79,62,45,56,50,43,95,68,33,30.23,30.12,4,1,11,0.00
2013-6-21,83,65,52,60,55,49,95,73,37,30.21,30.16,7,1,11,0.00
2013-6-22,83,67,56,66,61,54,96,83,54,30.18,30.08,3,1,8,0.03
2013-6-23,76,68,63,68,64,62,97,90,68,30.12,29.93,6,1,10,0.33
2013-6-24,94,77,66,75,68,65,98,78,44,29.94,29.79,14,1,16,0.01
2013-6-25,90,76,68,73,68,65,94,77,51,29.83,29.67,4,1,12,0.03
2013-6-26,79,68,59,71,65,58,97,91,77,29.87,29.67,6,1,9,0.45
2013-6-27,67,60,55,63,58,54,97,94,85,29.87,29.81,3,1,6,0.30
2013-6-28,66,60,57,65,60,56,99,98,96,29.82,29.52,7,1,11,0.60
2013-6-29,69,65,62,68,64,62,99,97,90,29.67,29.52,7,1,17,0.02
2013-6-30,82,69,62,72,66,61,99,90,70,29.90,29.66,4,1,8,0.00
2013-7-1,77,70,63,72,68,62,97,93,81,30.07,29.90,2,0,4,0.19
2013-7-2,68,63,60,68,62,59,98,97,96,30.20,30.06,6,2,8,0.17
2013-7-3,76,65,59,70,63,58,98,93,81,30.18,30.09,4,1,6,0.04
2013-7-4,86,75,63,76,70,63,99,85,66,30.14,30.02,5,1,6,0.00
2013-7-5,89,78,67,74,71,67,98,82,56,30.09,29.96,9,1,16,0.01
2013-7-6,88,78,70,74,70,63,98,79,57,30.00,29.89,4,1,9,0.00
2013-7-7,88,77,64,72,67,62,92,72,48,29.95,29.87,7,1,14,0.00
2013-7-8,75,70,66,71,67,63,98,89,74,30.05,29.87,4,1,14,0.26
2013-7-9,70,65,62,67,64,61,97,94,89,30.11,30.05,3,0,4,0.12
2013-7-10,68,64,61,68,63,60,99,95,88,30.07,29.76,3,1,5,0.10
2013-7-11,81,72,67,73,69,67,100,92,64,29.94,29.72,4,1,6,0.02
2013-7-12,82,69,61,68,60,57,96,74,51,30.20,29.94,8,2,13,0.00
2013-7-13,80,68,55,66,60,54,97,79,53,30.29,30.19,4,1,7,0.00
2013-7-14,89,74,61,73,66,60,98,78,54,30.26,30.16,5,1,9,0.00
2013-7-15,94,78,64,72,68,64,97,74,42,30.16,30.03,6,1,9,0.00
2013-7-16,92,79,69,73,69,66,91,73,50,30.13,30.06,5,1,9,0.00
2013-7-17,82,73,64,72,68,63,97,83,68,30.15,29.92,7,1,23,0.56
2013-7-18,86,75,70,73,70,62,99,85,59,29.98,29.90,6,1,9,0.02
2013-7-19,92,79,70,77,72,68,97,81,60,29.92,29.60,7,1,13,0.00
2013-7-20,91,79,72,73,69,62,88,72,47,29.75,29.57,11,2,19,0.00
2013-7-21,75,68,59,63,59,55,94,75,53,30.00,29.76,4,1,10,0.00
2013-7-22,73,65,59,66,60,56,97,84,62,30.02,29.91,4,1,6,0.00
2013-7-23,69,64,59,68,64,58,99,97,94,29.90,29.52,5,1,7,1.34
2013-7-24,81,69,58,73,63,50,99,83,62,29.95,29.55,6,2,14,0.00
2013-7-25,74,62,53,61,55,49,97,79,58,30.10,29.96,6,2,12,0.19
2013-7-26,70,65,61,66,63,60,97,93,84,30.07,29.87,9,3,17,0.14
2013-7-27,80,70,61,68,64,60,98,81,60,30.01,29.89,5,1,9,0.01
2013-7-28,74,66,58,68,63,56,97,91,80,30.03,29.99,6,1,8,0.01
2013-7-29,74,66,62,68,64,62,98,93,80,30.04,29.97,4,0,6,0.30
2013-7-30,82,69,60,68,60,54,99,76,37,30.04,29.98,7,1,9,0.00
2013-7-31,82,68,57,62,58,55,93,74,44,30.09,30.02,7,1,11,0.00
2013-8-1,76,66,55,69,61,54,98,86,68,30.02,29.86,6,1,11,0.00
2013-8-2,75,66,62,69,64,61,99,95,70,29.86,29.73,5,1,8,0.60
2013-8-3,75,65,57,66,62,57,99,89,62,29.80,29.70,7,1,9,0.02
2013-8-4,79,64,54,62,57,53,98,80,46,29.81,29.71,7,1,16,0.02
2013-8-5,74,62,53,53,51,46,92,68,43,30.01,29.80,10,2,15,0.00
2013-8-6,77,62,48,57,52,46,94,72,47,30.13,30.00,8,1,12,0.00
2013-8-7,78,63,48,64,56,46,98,80,41,30.17,30.10,4,1,10,0.00
2013-8-8,75,66,61,69,64,59,97,92,82,30.10,29.99,4,1,9,0.15
2013-8-9,70,67,66,69,67,65,99,97,95,29.99,29.70,6,1,14,0.70
2013-8-10,82,71,60,68,59,48,99,72,32,29.96,29.72,6,2,13,0.00
2013-8-11,80,65,51,57,53,49,96,69,39,30.02,29.95,8,1,11,0.00
2013-8-12,81,67,54,63,58,52,97,75,44,29.98,29.88,6,1,11,0.00
2013-8-13,72,65,55,67,61,53,98,87,68,29.89,29.68,4,0,11,0.00
2013-8-14,78,67,58,68,59,49,97,77,42,29.86,29.59,10,2,15,0.00
2013-8-15,78,64,52,58,53,49,93,69,40,30.05,29.86,4,1,11,0.00
2013-8-16,79,64,51,61,55,49,97,76,42,30.15,30.04,3,1,9,0.00
2013-8-17,80,65,52,61,55,50,97,73,41,30.24,30.16,6,1,11,0.00
2013-8-18,79,64,52,62,57,49,96,79,49,30.25,30.03,3,0,6,0.00
2013-8-19,85,70,56,65,60,54,97,73,45,30.02,29.86,5,1,13,0.00
2013-8-20,85,72,60,68,62,57,96,72,49,30.05,29.92,6,1,9,0.00
2013-8-21,87,72,59,68,63,58,97,77,49,30.10,29.96,6,1,12,0.00
2013-8-22,87,72,60,71,65,59,97,79,52,29.96,29.73,9,1,12,0.00
2013-8-23,80,71,58,67,56,48,92,63,34,30.12,29.74,11,3,17,0.00
2013-8-24,80,63,48,53,49,45,95,65,31,30.28,30.13,5,1,11,0.00
2013-8-25,81,63,48,60,53,46,96,74,38,30.33,30.12,9,1,13,0.00
2013-8-26,78,67,60,68,63,58,96,87,70,30.12,29.84,4,1,9,0.17
2013-8-27,85,71,61,70,64,60,98,82,56,29.88,29.81,3,1,7,0.00
2013-8-28,82,70,62,70,65,60,97,85,62,29.98,29.85,4,1,7,0.07
2013-8-29,68,65,58,65,61,56,96,88,77,30.09,29.96,7,2,10,0.00
2013-8-30,79,66,55,67,61,53,97,85,64,30.00,29.74,5,1,10,0.00
2013-8-31,84,71,65,71,67,62,96,87,64,29.80,29.74,7,0,13,0.00
2013-9-1,82,73,68,73,69,67,97,87,69,29.88,29.73,3,0,9,0.00
2013-9-2,69,66,63,68,66,62,98,97,92,29.89,29.71,7,1,10,1.85
2013-9-3,77,69,65,72,68,64,99,94,79,29.74,29.67,3,0,10,0.10
2013-9-4,81,68,57,64,60,56,98,77,44,29.86,29.71,8,1,11,0.00
2013-9-5,66,60,49,59,52,43,95,78,46,30.11,29.82,4,1,10,0.21
2013-9-6,68,55,43,52,45,38,93,71,36,30.20,30.02,6,1,13,0.00
2013-9-7,74,60,47,61,54,45,96,80,55,30.02,29.77,6,0,9,0.00
2013-9-8,66,59,47,59,50,39,96,73,44,30.04,29.69,12,2,27,0.10
2013-9-9,65,54,42,54,46,39,92,76,50,30.18,30.05,5,1,12,0.00
2013-9-10,65,60,54,62,57,51,95,89,81,30.10,30.00,5,1,9,0.00
2013-9-11,85,72,62,76,68,61,98,87,70,30.02,29.86,9,1,19,0.38
2013-9-12,75,68,64,71,66,63,98,96,84,29.95,29.63,5,1,13,0.83
2013-9-13,68,64,57,67,64,56,99,98,97,29.69,29.56,10,1,13,0.94
2013-9-14,69,60,54,60,54,49,98,82,60,30.00,29.68,6,2,11,0.00
2013-9-15,66,55,44,55,50,43,97,83,59,30.11,29.98,8,1,10,0.00
2013-9-16,65,55,43,57,50,37,96,85,66,30.24,29.95,7,2,12,0.03
2013-9-17,64,51,37,50,41,34,93,72,45,30.38,30.25,7,2,11,0.00
2013-9-18,70,54,40,54,45,39,98,76,42,30.27,30.08,4,1,9,0.00
2013-9-19,73,56,43,57,48,42,98,78,45,30.10,30.00,6,1,9,0.00
2013-9-20,74,58,43,58,50,42,98,79,49,30.08,30.00,5,0,7,0.00
2013-9-21,64,60,52,62,58,51,97,93,86,30.01,29.74,7,1,13,0.00
2013-9-22,68,63,51,65,58,46,97,86,67,29.74,29.56,6,2,18,0.79
2013-9-23,57,50,44,45,42,40,92,74,57,29.92,29.74,13,3,21,0.00
2013-9-24,56,50,44,44,42,39,87,74,62,29.91,29.81,13,2,16,0.00
2013-9-25,63,54,43,51,46,40,93,75,56,29.95,29.84,9,2,13,0.00
2013-9-26,65,55,46,52,48,43,92,77,60,30.11,29.95,7,3,14,0.00
2013-9-27,69,60,52,56,52,49,92,77,57,30.23,30.11,5,1,9,0.00
2013-9-28,72,56,46,56,50,45,97,81,50,30.32,30.23,6,1,8,0.00
2013-9-29,64,52,44,59,48,42,98,86,58,30.25,30.11,3,0,7,0.00
2013-9-30,64,50,40,54,47,38,98,89,64,30.13,29.95,5,0,6,0.01
2013-10-1,75,56,40,58,49,39,98,80,44,29.95,29.79,6,1,11,0.00
2013-10-2,78,62,49,63,54,47,98,78,49,29.87,29.73,5,1,10,0.00
2013-10-3,73,60,48,52,49,45,93,71,42,30.03,29.87,6,1,10,0.00
2013-10-4,70,57,44,58,49,42,97,78,51,30.07,30.00,5,0,7,0.00
2013-10-5,62,56,46,51,47,44,92,74,55,30.13,30.05,3,0,5,0.00
2013-10-6,55,50,46,48,43,38,95,78,57,30.27,30.13,7,1,7,0.07
2013-10-7,66,59,50,65,58,48,99,97,95,30.19,29.77,11,2,21,0.38
2013-10-8,62,54,39,61,45,36,96,75,46,30.37,29.80,8,2,16,0.01
2013-10-9,60,45,33,46,38,31,97,80,48,30.48,30.35,3,0,7,0.00
2013-10-10,62,47,33,50,42,32,97,84,52,30.35,30.17,5,0,9,0.00
2013-10-11,68,53,42,56,48,40,97,85,57,30.17,30.10,4,0,6,0.00
2013-10-12,59,52,47,54,49,46,97,87,74,30.41,30.16,7,1,7,0.00
2013-10-13,58,52,41,50,47,39,94,84,68,30.45,30.38,5,0,7,0.00
2013-10-14,59,48,35,51,44,34,97,85,62,30.38,30.23,7,1,13,0.00
2013-10-15,66,56,50,54,51,49,96,84,63,30.26,30.19,5,1,7,0.00
2013-10-16,61,56,53,55,53,50,95,88,70,30.19,29.88,5,1,8,0.00
2013-10-17,67,58,50,58,54,49,95,88,73,29.88,29.69,3,1,9,0.00
2013-10-18,66,58,51,57,51,44,98,81,49,29.80,29.56,7,2,13,0.31
2013-10-19,62,52,39,50,44,37,95,77,53,29.91,29.73,5,1,11,0.00
2013-10-20,61,54,40,52,42,32,94,68,36,29.93,29.64,9,2,17,0.01
2013-10-21,61,46,34,47,40,32,96,80,45,30.06,29.94,5,0,11,0.00
2013-10-22,60,53,43,54,50,41,95,87,74,29.95,29.68,8,1,12,0.09
2013-10-23,53,43,33,44,38,31,97,83,57,29.75,29.56,4,0,8,0.00
2013-10-24,51,43,32,37,32,28,92,68,42,29.79,29.57,10,2,20,0.00
2013-10-25,49,40,31,36,30,25,94,70,48,30.08,29.80,7,1,14,0.00
2013-10-26,50,40,26,39,30,24,96,72,50,30.09,29.84,14,2,17,0.00
2013-10-27,54,46,35,41,36,28,94,70,48,29.99,29.76,8,2,15,0.04
2013-10-28,56,39,28,37,30,24,94,71,48,30.33,29.99,13,2,19,0.00
2013-10-29,46,33,23,28,24,20,92,71,36,30.43,30.33,5,1,11,0.00
2013-10-30,48,33,24,32,26,22,93,76,39,30.33,30.15,4,1,9,0.00
2013-10-31,55,40,25,55,38,23,97,92,83,30.23,29.76,9,1,14,0.26
2013-11-1,63,58,54,60,56,50,98,92,82,29.75,29.33,14,2,22,0.23
2013-11-2,63,51,38,50,44,36,97,78,49,29.74,29.54,8,1,14,0.02
2013-11-3,44,38,29,40,26,19,85,64,43,30.40,29.74,12,4,17,0.00
2013-11-4,40,31,23,20,18,16,84,62,39,30.69,30.40,10,2,15,0.00
2013-11-5,46,32,20,33,26,17,93,80,60,30.70,30.48,5,1,12,0.00
2013-11-6,53,44,32,49,40,30,96,88,73,30.48,29.96,7,1,17,0.00
2013-11-7,58,51,38,55,47,28,94,86,65,29.95,29.60,10,3,15,0.03
2013-11-8,44,39,32,28,25,23,75,58,45,29.96,29.74,9,2,15,0.01
2013-11-9,44,37,30,27,22,20,81,56,39,30.10,29.96,10,2,16,0.00
2013-11-10,43,37,32,40,34,27,95,89,80,30.05,29.69,2,0,5,0.01
2013-11-11,45,38,32,34,30,28,96,74,55,30.00,29.72,10,2,15,0.01
2013-11-12,43,33,27,32,20,14,73,59,49,30.09,29.80,10,4,18,0.00
2013-11-13,33,27,22,16,13,11,69,56,44,30.21,30.07,9,2,15,0.00
2013-11-14,46,34,26,28,23,15,88,63,43,30.07,29.96,5,1,10,0.00
2013-11-15,51,35,23,35,26,22,95,74,37,30.15,30.05,5,1,11,0.00
2013-11-16,51,37,28,35,31,26,94,80,53,30.32,30.14,3,1,5,0.00
2013-11-17,53,45,36,52,43,35,97,90,76,30.33,29.90,8,1,14,0.12
2013-11-18,62,54,44,56,48,36,98,84,55,29.88,29.45,11,3,20,0.31
2013-11-19,46,36,31,36,22,16,75,57,46,30.19,29.55,16,5,23,0.00
2013-11-20,38,31,22,16,14,10,77,52,32,30.61,30.20,11,3,17,0.00
2013-11-21,44,29,18,25,20,15,88,70,35,30.62,30.32,5,0,7,0.00
2013-11-22,38,34,28,35,29,21,95,84,70,30.31,29.75,3,0,5,0.03
2013-11-23,40,34,25,36,23,14,95,68,37,29.79,29.66,14,3,25,0.00
2013-11-24,25,21,18,23,7,1,92,56,43,29.98,29.66,21,8,27,0.00
2013-11-25,30,22,16,16,4,-2,63,47,31,30.30,30.00,13,4,23,0.00
2013-11-26,34,30,27,29,25,15,93,80,54,30.29,30.14,5,1,12,0.05
2013-11-27,57,47,31,57,46,29,98,96,92,30.13,29.14,16,4,27,1.90
2013-11-28,38,29,19,36,17,6,92,61,39,30.37,29.27,14,4,22,0.01
2013-11-29,26,20,16,10,8,4,76,61,41,30.72,30.37,10,2,17,0.00
2013-11-30,28,20,9,20,11,5,88,70,38,30.80,30.41,5,1,8,0.00
2013-12-1,33,31,25,32,28,20,96,90,80,30.40,30.05,6,1,9,0.51
2013-12-2,36,34,33,35,34,32,97,97,96,30.05,29.90,11,3,11,0.41
2013-12-3,42,36,32,40,34,29,98,94,86,29.90,29.83,9,2,12,0.00
2013-12-4,40,31,25,29,26,23,92,81,61,30.20,29.86,4,1,10,0.00
2013-12-5,40,31,23,40,30,21,97,95,92,30.25,29.89,3,1,5,0.03
2013-12-6,43,39,36,43,37,28,98,92,72,30.09,29.83,5,1,8,0.11
2013-12-7,37,32,25,30,19,8,92,62,44,30.40,30.05,10,3,15,0.00
2013-12-8,28,25,21,15,10,7,73,54,40,30.56,30.39,14,3,20,0.00
2013-12-9,28,25,22,26,19,11,94,79,59,30.52,29.81,5,2,13,0.00
2013-12-10,32,25,19,31,24,16,95,93,88,29.89,29.70,3,0,6,0.00
2013-12-11,28,19,9,22,15,6,93,84,70,30.11,29.89,6,1,17,0.00
2013-12-12,19,12,3,16,4,-1,90,74,56,30.23,29.98,10,2,17,0.00
2013-12-13,22,13,4,14,4,-7,82,67,50,30.37,29.88,9,3,14,0.00
2013-12-14,12,6,-3,7,-5,-9,87,62,42,30.61,30.38,6,2,14,0.00
2013-12-15,16,12,9,14,9,6,91,89,87,30.37,29.40,18,6,26,0.00
2013-12-16,23,12,0,16,3,-7,92,70,40,30.19,29.64,9,2,19,0.00
2013-12-17,13,4,-12,8,-4,-17,88,71,52,30.30,30.02,7,2,9,0.00
2013-12-18,28,17,9,23,14,6,89,86,79,30.02,29.83,9,3,16,0.00
2013-12-19,32,21,9,27,18,6,95,89,80,30.07,29.90,5,1,11,0.00
2013-12-20,38,29,18,34,27,16,95,92,84,30.11,29.88,3,0,4,0.18
2013-12-21,34,32,30,33,31,29,96,95,93,29.93,29.82,3,1,8,0.26
2013-12-22,32,29,26,31,28,24,96,96,95,30.07,29.87,9,3,16,0.28
2013-12-23,32,30,26,31,29,25,97,96,95,30.10,29.95,6,1,7,0.00
2013-12-24,32,24,11,31,22,8,97,92,87,30.16,30.04,0,0,0,0.00
2013-12-25,17,10,5,13,7,2,90,85,82,30.54,30.17,3,0,4,0.01
2013-12-26,24,16,7,23,15,5,94,92,90,30.50,30.06,3,1,5,0.00
2013-12-27,31,19,5,29,17,3,95,91,88,30.19,30.11,3,0,3,0.00
2013-12-28,34,23,11,31,21,9,95,92,88,30.15,29.92,2,0,4,0.00
2013-12-29,34,25,14,33,24,13,96,94,92,30.01,29.52,6,1,12,0.00
2013-12-30,30,19,3,29,16,-1,95,90,79,30.17,29.51,12,2,15,0.00
2013-12-31,10,2,-5,5,-2,-9,88,84,77,30.16,30.03,5,1,7,0.00
2014-1-1,20,3,-11,15,-1,-15,91,83,70,30.40,30.10,8,1,15,0.00
2014-1-2,6,-3,-8,3,-7,-11,86,83,79,30.44,30.00,15,5,20,0.00